Flight Track Log - Related Links

Times and Time Zones

All times are in EDT time to prevent confusion due to time zone crossing. See the ASQ5745 flight status page for this flight to view local times or setup timezone preferences in your user account.

Time Position Orientation Groundspeed Altitude Reporting Facility
EDT Latitude Longitude Course Direction KTS MPH feet Rate Location/Type
Sat 08:02:00 PM 36.3531 -79.7308 61° Northeast  Level Estimated
Sat 08:02:07 PM 36.0817 -79.8147 47° Northeast 288 331 7,700  Level Washington Center
Sat 08:03:00 PM 36.4370 -79.6604 39° Northeast  Level Estimated
Sat 08:03:08 PM 36.1342 -79.7403 49° Northeast 296 341 11,100  Level Washington Center
Sat 08:04:00 PM 36.5208 -79.5898 47° Northeast  Level Estimated
Sat 08:04:06 PM 36.1892 -79.6583 50° Northeast 296 341 12,300  Level Washington Center
Sat 08:05:00 PM 36.6045 -79.5191 44° Northeast  Level Estimated
Sat 08:05:08 PM 36.2528 -79.5664 49° Northeast 331 381 13,400  Level Washington Center
Sat 08:06:00 PM 36.5863 -79.3951 100° East  Level FlightAware Approximate
Sat 08:06:08 PM 36.3164 -79.4692 51° Northeast 360 414 14,700  Level Washington Center
Sat 08:07:00 PM 36.6718 -79.3276 47° Northeast  Level Estimated
Sat 08:07:05 PM 36.3797 -79.3819 48° Northeast 371 427 16,100  Level Washington Center
Sat 08:08:07 PM 36.4583 -79.2747 48° Northeast 371 427 17,800 1,512 Climbing Washington Center
Sat 08:09:08 PM 36.5319 -79.1850 44° Northeast 371 427 19,200 1,424 Climbing Washington Center
Sat 08:10:05 PM 36.6097 -79.0956 43° Northeast 371 427 20,600 1,169 Climbing Washington Center
Sat 08:11:06 PM 36.6769 -79.0053 47° Northeast 377 434 21,500 934 Climbing Washington Center
Sat 08:12:07 PM 36.7303 -78.8911 60° Northeast 382 440 22,500 984 Climbing Washington Center
Sat 08:13:08 PM 36.7836 -78.7689 61° Northeast 382 440 23,500 1,059 Climbing Washington Center
Sat 08:14:06 PM 36.8414 -78.6389 61° Northeast 391 450 24,600 756 Climbing Washington Center
Sat 08:15:07 PM 36.9089 -78.5272 53° Northeast 391 450 25,000 198 Climbing Washington Center
Sat 08:16:07 PM 37.0044 -78.4475 34° Northeast 396 456 25,000  Level Washington Center
Sat 08:17:06 PM 37.0981 -78.3731 32° Northeast 417 480 25,000  Level Washington Center
Sat 08:18:06 PM 37.2003 -78.2853 34° Northeast 430 495 25,000  Level Washington Center
Sat 08:19:07 PM 37.3022 -78.2003 34° Northeast 440 506 25,000  Level Washington Center
Sat 08:20:07 PM 37.4150 -78.1047 34° Northeast 440 506 25,000  Level Washington Center
Sat 08:21:08 PM 37.5167 -78.0189 34° Northeast 440 506 25,000 -738 Level Washington Center
Sat 08:22:09 PM 37.6228 -77.9281 34° Northeast 446 513 23,500 -2,085 Descending Washington Center
Sat 08:23:06 PM 37.7247 -77.8419 34° Northeast 446 513 20,900 -2,542 Descending Washington Center
Sat 08:24:07 PM 37.8222 -77.7581 34° Northeast 439 505 18,500 -2,410 Descending Washington Center
Sat 08:25:08 PM 37.9175 -77.6764 34° Northeast 433 498 16,000 -2,521 Descending Washington Center
Sat 08:26:06 PM 38.0086 -77.5947 35° Northeast 413 475 13,500 -2,600 Descending Washington Center
Sat 08:27:08 PM 38.0953 -77.5231 33° Northeast 396 456 10,800 -1,800 Descending Washington Center
Sat 08:28:06 PM 38.1756 -77.4539 34° Northeast 370 426 9,900 -400 Descending Washington Center
Sat 08:29:08 PM 38.2469 -77.4106 25° Northeast 317 365 10,000 -197 Climbing Washington Center
Sat 08:30:08 PM 38.3164 -77.3675 26° Northeast 287 330 9,500 -1,068 Descending Washington Center
Sat 08:31:06 PM 38.3939 -77.3586 North 275 316 7,900 -1,563 Descending Washington Center
Sat 08:32:07 PM 38.4708 -77.3631 357° North 270 311 6,400 -1,438 Descending Washington Center
Sat 08:33:07 PM 38.5458 -77.3650 359° North 270 311 5,000 -694 Descending Washington Center
Sat 08:34:08 PM 38.6167 -77.3639 North 270 311 5,000 -50 Level Washington Center
Sat 08:35:07 PM 38.6878 -77.3631 North 260 299 4,900 -417 Descending Washington Center
Sat 08:36:32 PM 38.8000 -77.3500 North 263 303 4,000 -406 Descending Potomac TRACON
Sat 08:37:20 PM 38.8500 -77.3500 360° North 260 299 4,000 -333 Level Potomac TRACON
Sat 08:38:20 PM 38.9167 -77.3500 360° North 250 288 3,400 -992 Descending Potomac TRACON
Sat 08:39:21 PM 38.9833 -77.3500 360° North 263 303 2,000 -694 Descending Potomac TRACON
Sat 08:40:21 PM 39.0500 -77.3667 349° North 216 249 2,000  Level Potomac TRACON
Sat 08:41:15 PM 39.0333 -77.4333 252° West 186 214 2,000 -500 Level Potomac TRACON
Sat 08:42:21 PM 39.0000 -77.4333 180° South 133 153 1,000 -909 Descending Potomac TRACON

Login

Don't have an account? Register now (free) for customized features, flight alerts, and more!